Airport View

Enter AWOS ICAO identifier for current METAR.

ex. KFNL

KVPS 080906Z AUTO 23010KT 10SM OVC006 23/23 A2992 RMK AO2 SLP138 $

8 Apr 2020 09:36

Other Area AWOS: KDTS - KHRT - KEGI - KCEW

TAF KVPS 080900Z 0809/0915 22008KT 9999 BKN008 OVC025 QNH2999INS BECMG 0809/0810 22009KT 9999 OVC003 QNH2994INS BECMG 0813/0814 24010G15KT 9999 VCSH BKN005 OVC015 QNH2991INS TEMPO 0817/0820 9000 -SHRA SCT005 BKN020 BECMG 0819/0820 24012G18KT 9999 NSW BKN020 BKN030 QNH2989INS BECMG 0820/0821 24012KT 9999 SCT015 BKN030 QNH2982INS BECMG 0901/0902 24010KT 9999 SCT005 BKN015 OVC030 QNH2983INS BECMG 0903/0904 23009KT 9999 BKN005 OVC015 QNH2986INS BECMG 0911/0912 20009KT 8000 -SHRA BR BKN007 OVC020 QNH2990INS TX26/0820Z TN20/0811Z